Time;durP1;ratioP1;P1;durP2;ratioP2;P2;SDS_P1;SDS_P2;PMS_P1;PMS_P2;Temp;Humidity;BMP_temperature;BMP_pressure;BME280_temperature;BME280_humidity;BME280_pressure;Samples;Min_cycle;Max_cycle;Signal;HPM_P1;HPM_P2
2024/01/02 00:01:34;;;;;;;14.40;4.77;;;6.00;99.90;;;;;;5095619;28;20048;-77
2024/01/02 00:04:00;;;;;;;16.33;4.20;;;6.00;99.90;;;;;;5096661;28;20366;-79
2024/01/02 00:06:26;;;;;;;13.73;4.10;;;6.00;99.90;;;;;;5096243;28;20380;-77
2024/01/02 00:08:51;;;;;;;14.70;3.90;;;6.00;99.90;;;;;;5096423;28;20059;-77
2024/01/02 00:11:18;;;;;;;14.70;4.50;;;6.00;99.90;;;;;;5096433;28;20520;-78
2024/01/02 00:13:44;;;;;;;13.70;4.07;;;6.00;99.90;;;;;;5096568;28;20051;-78
2024/01/02 00:16:09;;;;;;;13.23;3.77;;;6.00;99.90;;;;;;5096613;28;20817;-78
2024/01/02 00:18:35;;;;;;;18.40;3.80;;;6.10;99.90;;;;;;5096055;28;20465;-78
2024/01/02 00:21:01;;;;;;;10.33;3.43;;;6.10;99.90;;;;;;5096242;28;20100;-78
2024/01/02 00:23:27;;;;;;;13.60;3.20;;;6.10;99.90;;;;;;5094898;28;20051;-78
2024/01/02 00:25:52;;;;;;;15.70;4.27;;;6.10;99.90;;;;;;5095909;28;20055;-78
2024/01/02 00:28:18;;;;;;;14.90;3.90;;;6.10;99.90;;;;;;5096325;28;20079;-79
2024/01/02 00:30:44;;;;;;;13.07;3.43;;;6.10;99.90;;;;;;5095936;28;20047;-78
2024/01/02 00:33:10;;;;;;;14.47;3.90;;;6.10;99.90;;;;;;5095170;28;20044;-78
2024/01/02 00:35:37;;;;;;;15.57;3.57;;;6.20;99.90;;;;;;5095887;28;20617;-78
2024/01/02 00:38:03;;;;;;;15.00;3.60;;;6.10;99.90;;;;;;5096003;28;20048;-78
2024/01/02 00:40:29;;;;;;;18.83;3.83;;;6.10;99.90;;;;;;5095355;28;20767;-78
2024/01/02 00:42:54;;;;;;;13.70;3.33;;;6.10;99.90;;;;;;5094830;28;20339;-79
2024/01/02 00:45:20;;;;;;;13.50;3.73;;;6.10;99.90;;;;;;5093696;28;20048;-80
2024/01/02 00:47:46;;;;;;;12.60;3.37;;;6.10;99.90;;;;;;5093517;28;20040;-80
2024/01/02 00:50:12;;;;;;;12.20;3.20;;;6.20;99.90;;;;;;5092545;28;20079;-80
2024/01/02 00:52:38;;;;;;;19.83;4.33;;;6.10;99.90;;;;;;5093546;28;20325;-80
2024/01/02 00:55:05;;;;;;;17.53;3.93;;;6.20;99.90;;;;;;5093708;28;20044;-79
2024/01/02 00:57:31;;;;;;;16.07;3.43;;;6.20;99.90;;;;;;5093669;28;20044;-80
2024/01/02 01:00:01;;;;;;;17.67;4.33;;;6.20;99.90;;;;;;5095021;28;20290;-81
2024/01/02 01:02:27;;;;;;;16.40;3.13;;;6.20;99.90;;;;;;5095540;28;20278;-81
2024/01/02 01:04:52;;;;;;;14.27;3.43;;;6.20;99.90;;;;;;5095389;28;20766;-81
2024/01/02 01:07:18;;;;;;;19.03;4.17;;;6.20;99.90;;;;;;5095209;28;20032;-81
2024/01/02 01:09:44;;;;;;;19.20;4.40;;;6.20;99.90;;;;;;5094330;28;20086;-80
2024/01/02 01:12:09;;;;;;;19.77;4.23;;;6.20;99.90;;;;;;5094433;28;20044;-81
2024/01/02 01:14:35;;;;;;;15.13;3.73;;;6.20;99.90;;;;;;5094134;28;20048;-80
2024/01/02 01:17:04;;;;;;;24.97;4.53;;;6.20;99.90;;;;;;5095301;28;20052;-80
2024/01/02 01:19:30;;;;;;;14.30;3.83;;;6.20;99.90;;;;;;5095119;28;20455;-77
2024/01/02 01:21:55;;;;;;;17.33;4.40;;;6.20;99.90;;;;;;5093908;28;20282;-80
2024/01/02 01:24:21;;;;;;;21.27;4.10;;;6.20;99.90;;;;;;5095378;28;20051;-80
2024/01/02 01:26:52;;;;;;;23.73;5.50;;;6.20;99.90;;;;;;5094872;28;20087;-79
2024/01/02 01:29:21;;;;;;;18.97;4.40;;;6.30;99.90;;;;;;5095309;28;20054;-79
2024/01/02 01:31:47;;;;;;;21.47;4.33;;;6.30;99.90;;;;;;5094730;28;20271;-79
2024/01/02 01:34:13;;;;;;;18.83;3.63;;;6.20;99.90;;;;;;5094810;28;20314;-79
2024/01/02 01:36:38;;;;;;;15.67;4.20;;;6.20;99.90;;;;;;5093485;28;20703;-79
2024/01/02 01:39:07;;;;;;;17.23;4.23;;;6.30;99.90;;;;;;5094821;28;20297;-79
2024/01/02 01:41:33;;;;;;;18.17;4.40;;;6.30;99.90;;;;;;5094697;28;20100;-78
2024/01/02 01:43:58;;;;;;;15.23;4.23;;;6.30;99.90;;;;;;5094894;28;20301;-79
2024/01/02 01:46:28;;;;;;;17.67;3.97;;;6.30;99.90;;;;;;5094648;28;20036;-79
2024/01/02 01:48:53;;;;;;;19.33;4.37;;;6.30;99.90;;;;;;5094380;28;20059;-79
2024/01/02 01:51:20;;;;;;;22.63;4.67;;;6.30;99.90;;;;;;5094449;28;20290;-79
2024/01/02 01:53:46;;;;;;;23.67;3.60;;;6.40;99.90;;;;;;5093502;28;20067;-79
2024/01/02 01:56:13;;;;;;;20.77;4.73;;;6.30;99.90;;;;;;5094528;28;20282;-79
2024/01/02 01:58:39;;;;;;;16.17;4.10;;;6.30;99.90;;;;;;5076472;28;20059;-78
2024/01/02 02:01:04;;;;;;;16.83;4.13;;;6.40;99.90;;;;;;5092618;28;20290;-79
2024/01/02 02:03:32;;;;;;;16.80;3.90;;;6.40;99.90;;;;;;5094192;28;20782;-78
2024/01/02 02:05:57;;;;;;;20.73;5.00;;;6.40;99.90;;;;;;5092901;28;20044;-78
2024/01/02 02:08:23;;;;;;;17.27;3.70;;;6.40;99.90;;;;;;5094307;28;20309;-79
2024/01/02 02:10:49;;;;;;;17.27;4.70;;;6.40;99.90;;;;;;5094056;28;20055;-78
2024/01/02 02:13:16;;;;;;;15.53;3.80;;;6.40;99.90;;;;;;5094158;28;20282;-78
2024/01/02 02:15:42;;;;;;;13.50;4.10;;;6.40;99.90;;;;;;5093885;28;20443;-78
2024/01/02 02:18:10;;;;;;;14.47;3.53;;;6.40;99.90;;;;;;5093939;28;20278;-78
2024/01/02 02:20:36;;;;;;;16.83;4.67;;;6.50;99.90;;;;;;5094036;28;20123;-76
2024/01/02 02:23:02;;;;;;;16.00;3.57;;;6.50;99.90;;;;;;5093794;28;20310;-79
2024/01/02 02:25:28;;;;;;;15.17;3.60;;;6.50;99.90;;;;;;5093899;28;20354;-80
2024/01/02 02:27:54;;;;;;;17.03;4.33;;;6.50;99.90;;;;;;5093587;28;20485;-79
2024/01/02 02:30:19;;;;;;;18.10;3.67;;;6.50;99.90;;;;;;5093818;28;20055;-80
2024/01/02 02:32:45;;;;;;;17.97;4.33;;;6.50;99.90;;;;;;5093611;28;20048;-79
2024/01/02 02:35:11;;;;;;;14.47;3.60;;;6.50;99.90;;;;;;5093882;28;20048;-80
2024/01/02 02:37:36;;;;;;;14.63;3.80;;;6.60;99.90;;;;;;5093671;28;20112;-80
2024/01/02 02:40:03;;;;;;;13.60;4.50;;;6.60;99.90;;;;;;5093515;28;20043;-78
2024/01/02 02:42:29;;;;;;;14.63;3.53;;;6.60;99.90;;;;;;5093362;28;20503;-79
2024/01/02 02:44:55;;;;;;;14.73;3.60;;;6.60;99.90;;;;;;5092048;28;20270;-78
2024/01/02 02:47:22;;;;;;;13.77;4.30;;;6.60;99.90;;;;;;5091167;28;20301;-78
2024/01/02 02:49:49;;;;;;;16.43;3.40;;;6.60;99.90;;;;;;5091003;28;20109;-77
2024/01/02 02:52:16;;;;;;;10.10;3.30;;;6.60;99.90;;;;;;5091334;28;20282;-77
2024/01/02 02:54:42;;;;;;;14.43;4.27;;;6.60;99.90;;;;;;5091246;28;20523;-78
2024/01/02 02:57:07;;;;;;;14.40;3.23;;;6.60;99.90;;;;;;5090723;28;20286;-78
2024/01/02 02:59:33;;;;;;;10.80;3.20;;;6.60;99.90;;;;;;5091942;28;20282;-78
2024/01/02 03:01:59;;;;;;;15.53;4.37;;;6.70;99.90;;;;;;5093008;28;20051;-78
2024/01/02 03:04:24;;;;;;;13.07;3.40;;;6.70;99.90;;;;;;5093523;28;20512;-78
2024/01/02 03:06:50;;;;;;;13.47;4.63;;;6.70;99.90;;;;;;5093157;28;20044;-78
2024/01/02 03:09:16;;;;;;;14.63;4.03;;;6.70;99.90;;;;;;5093351;28;20090;-79
2024/01/02 03:11:44;;;;;;;14.03;4.27;;;6.60;99.90;;;;;;5093019;28;20044;-78
2024/01/02 03:14:10;;;;;;;12.77;4.17;;;6.60;99.90;;;;;;5093166;28;20326;-79
2024/01/02 03:16:35;;;;;;;12.63;4.10;;;6.70;99.90;;;;;;5092984;28;20321;-79
2024/01/02 03:19:02;;;;;;;11.80;4.17;;;6.70;99.90;;;;;;5093078;28;20048;-79
2024/01/02 03:21:28;;;;;;;14.83;4.13;;;6.70;99.90;;;;;;5093315;28;20047;-79
2024/01/02 03:23:55;;;;;;;12.17;4.13;;;6.70;99.90;;;;;;5093188;28;20617;-79
2024/01/02 03:26:21;;;;;;;14.53;4.60;;;6.70;99.90;;;;;;5093020;28;20302;-78
2024/01/02 03:28:47;;;;;;;15.07;4.30;;;6.70;99.90;;;;;;5092999;28;20309;-78
2024/01/02 03:31:12;;;;;;;14.23;4.40;;;6.70;99.90;;;;;;5092943;28;20278;-78
2024/01/02 03:33:38;;;;;;;11.47;4.30;;;6.70;99.90;;;;;;5093191;28;20080;-79
2024/01/02 03:36:11;;;;;;;16.43;5.20;;;6.70;99.90;;;;;;5093062;28;20202;-80
2024/01/02 03:38:36;;;;;;;13.53;4.87;;;6.70;99.90;;;;;;5093129;28;20121;-80
2024/01/02 03:41:02;;;;;;;12.30;5.17;;;6.70;99.90;;;;;;5092691;28;20290;-79
2024/01/02 03:43:28;;;;;;;15.97;5.50;;;6.70;99.90;;;;;;5092878;28;20047;-79
2024/01/02 03:45:53;;;;;;;15.53;6.50;;;6.70;99.90;;;;;;5091498;28;20051;-79
2024/01/02 03:48:20;;;;;;;13.90;6.53;;;6.70;99.90;;;;;;5093068;28;20052;-79
2024/01/02 03:50:46;;;;;;;12.33;5.57;;;6.60;99.90;;;;;;5091796;28;20487;-75
2024/01/02 03:53:11;;;;;;;14.07;6.27;;;6.70;99.90;;;;;;5092940;28;20283;-79
2024/01/02 03:55:37;;;;;;;16.17;6.20;;;6.60;99.90;;;;;;5091803;28;20514;-78
2024/01/02 03:58:03;;;;;;;13.60;5.97;;;6.60;99.90;;;;;;5092513;28;20040;-78
2024/01/02 04:00:29;;;;;;;13.63;5.93;;;6.60;99.90;;;;;;5091484;28;20144;-79
2024/01/02 04:02:54;;;;;;;13.83;7.50;;;6.60;99.90;;;;;;5092758;28;20055;-79
2024/01/02 04:05:20;;;;;;;15.87;7.40;;;6.60;99.90;;;;;;5092874;28;20052;-79
2024/01/02 04:07:46;;;;;;;17.13;8.40;;;6.60;99.90;;;;;;5092586;28;20495;-78
2024/01/02 04:10:12;;;;;;;15.17;5.73;;;6.60;99.90;;;;;;5092458;28;20379;-78
2024/01/02 04:12:37;;;;;;;12.30;5.57;;;6.60;99.90;;;;;;5092652;28;20056;-80
2024/01/02 04:15:03;;;;;;;10.27;4.50;;;6.70;99.90;;;;;;5092228;28;20048;-77
2024/01/02 04:17:29;;;;;;;11.60;5.77;;;6.60;99.90;;;;;;5092666;28;20051;-79
2024/01/02 04:19:55;;;;;;;14.10;6.13;;;6.60;99.90;;;;;;5092478;28;20286;-77
2024/01/02 04:22:21;;;;;;;15.37;6.60;;;6.70;99.90;;;;;;5092608;28;20051;-77
2024/01/02 04:24:46;;;;;;;12.27;7.00;;;6.70;99.90;;;;;;5094290;28;20062;-78
2024/01/02 04:27:12;;;;;;;19.70;7.43;;;6.60;99.90;;;;;;5095759;28;20101;-78
2024/01/02 04:29:38;;;;;;;11.93;6.00;;;6.60;99.90;;;;;;5095970;28;20044;-78
2024/01/02 04:32:04;;;;;;;14.20;5.77;;;6.60;99.90;;;;;;5096077;28;20497;-77
2024/01/02 04:34:30;;;;;;;10.43;5.70;;;6.60;99.90;;;;;;5095883;28;20290;-78
2024/01/02 04:36:55;;;;;;;13.93;6.07;;;6.70;99.90;;;;;;5095492;28;20275;-77
2024/01/02 04:39:22;;;;;;;9.30;4.80;;;6.60;99.90;;;;;;5096339;28;20044;-77
2024/01/02 04:41:48;;;;;;;9.83;4.57;;;6.70;99.90;;;;;;5095938;28;20122;-76
2024/01/02 04:44:13;;;;;;;10.03;4.90;;;6.70;99.90;;;;;;5094619;28;20377;-76
2024/01/02 04:46:39;;;;;;;10.77;4.70;;;6.70;99.90;;;;;;5095566;28;20106;-76
2024/01/02 04:49:04;;;;;;;13.90;5.67;;;6.70;99.90;;;;;;5095679;28;20104;-76
2024/01/02 04:51:30;;;;;;;8.63;4.90;;;6.70;99.90;;;;;;5095800;28;20504;-76
2024/01/02 04:53:56;;;;;;;14.13;5.40;;;6.70;99.90;;;;;;5095480;28;20112;-76
2024/01/02 04:56:21;;;;;;;11.43;5.33;;;6.70;99.90;;;;;;5095771;28;20397;-76
2024/01/02 04:58:47;;;;;;;8.17;4.50;;;6.70;99.90;;;;;;5095418;28;20071;-76
2024/01/02 05:01:13;;;;;;;11.97;4.47;;;6.70;99.90;;;;;;5095440;28;20040;-76
2024/01/02 05:03:38;;;;;;;7.47;4.03;;;6.70;99.90;;;;;;5095646;28;20112;-76
2024/01/02 05:06:04;;;;;;;10.03;4.47;;;6.70;99.90;;;;;;5095088;28;20508;-76
2024/01/02 05:08:30;;;;;;;8.17;4.00;;;6.70;99.90;;;;;;5095429;28;20052;-76
2024/01/02 05:10:55;;;;;;;12.13;4.33;;;6.70;99.90;;;;;;5094043;28;20040;-76
2024/01/02 05:13:21;;;;;;;6.93;3.80;;;6.60;99.90;;;;;;5095155;28;20044;-76
2024/01/02 05:15:47;;;;;;;9.97;4.07;;;6.70;99.90;;;;;;5095407;28;20044;-76
2024/01/02 05:18:12;;;;;;;9.93;3.70;;;6.70;99.90;;;;;;5095119;28;20094;-76
2024/01/02 05:20:38;;;;;;;8.67;4.43;;;6.70;99.90;;;;;;5095097;28;20055;-76
2024/01/02 05:23:04;;;;;;;7.03;3.97;;;6.70;99.90;;;;;;5094000;28;20048;-76
2024/01/02 05:25:31;;;;;;;9.03;4.40;;;6.70;99.90;;;;;;5094992;28;20051;-76
2024/01/02 05:27:57;;;;;;;8.43;4.57;;;6.70;99.90;;;;;;5094574;28;20302;-75
2024/01/02 05:30:23;;;;;;;7.77;4.60;;;6.70;99.90;;;;;;5095105;28;20274;-76
2024/01/02 05:32:50;;;;;;;7.60;4.03;;;6.70;99.90;;;;;;5095062;28;20286;-75
2024/01/02 05:35:15;;;;;;;6.30;4.10;;;6.70;99.90;;;;;;5093901;28;20801;-76
2024/01/02 05:37:41;;;;;;;7.73;3.77;;;6.70;99.90;;;;;;5094450;28;20318;-77
2024/01/02 05:40:09;;;;;;;7.03;4.10;;;6.70;99.90;;;;;;5094694;28;20055;-76
2024/01/02 05:42:35;;;;;;;6.57;4.13;;;6.70;99.90;;;;;;5094686;28;20451;-76
2024/01/02 05:45:01;;;;;;;6.53;3.53;;;6.70;99.90;;;;;;5094584;28;20278;-75
2024/01/02 05:47:26;;;;;;;6.90;3.17;;;6.70;99.90;;;;;;5094619;28;20783;-76
2024/01/02 05:49:52;;;;;;;5.83;3.33;;;6.70;99.90;;;;;;5094671;28;20293;-75
2024/01/02 05:52:18;;;;;;;7.93;3.53;;;6.70;99.90;;;;;;5094278;28;20497;-75
2024/01/02 05:54:44;;;;;;;4.67;2.70;;;6.70;99.90;;;;;;5094455;28;20044;-75
2024/01/02 05:57:11;;;;;;;6.07;1.97;;;6.70;99.90;;;;;;5094041;28;20055;-75
2024/01/02 05:59:37;;;;;;;4.70;2.43;;;6.80;99.90;;;;;;5094511;28;20325;-75
2024/01/02 06:02:03;;;;;;;4.90;2.40;;;6.80;99.90;;;;;;5094415;28;20317;-74
2024/01/02 06:04:28;;;;;;;5.33;2.43;;;6.80;99.90;;;;;;5094482;28;20046;-74
2024/01/02 06:06:54;;;;;;;5.43;2.20;;;6.80;99.90;;;;;;5094377;28;20086;-75
2024/01/02 06:09:20;;;;;;;5.30;2.10;;;6.80;99.90;;;;;;5093974;28;20052;-75
2024/01/02 06:11:45;;;;;;;4.97;2.30;;;6.80;99.90;;;;;;5094025;28;20040;-75
2024/01/02 06:14:11;;;;;;;6.03;2.77;;;6.80;99.90;;;;;;5094041;28;20043;-74
2024/01/02 06:16:38;;;;;;;4.53;2.70;;;6.70;99.90;;;;;;5094182;28;20040;-75
2024/01/02 06:19:04;;;;;;;4.57;2.60;;;6.70;99.90;;;;;;5092477;28;20290;-74
2024/01/02 06:21:30;;;;;;;4.53;2.40;;;6.80;99.90;;;;;;5093959;28;20281;-74
2024/01/02 06:23:56;;;;;;;5.70;2.60;;;6.80;99.90;;;;;;5093966;28;20290;-74
2024/01/02 06:26:21;;;;;;;5.03;2.70;;;6.80;99.90;;;;;;5093517;28;20127;-74
2024/01/02 06:28:47;;;;;;;5.37;2.80;;;6.80;99.90;;;;;;5094091;28;20132;-74
2024/01/02 06:31:13;;;;;;;5.13;2.60;;;6.80;99.90;;;;;;5093526;28;20040;-74
2024/01/02 06:33:44;;;;;;;5.17;2.90;;;6.80;99.90;;;;;;5093691;28;20117;-74
2024/01/02 06:36:12;;;;;;;4.30;2.50;;;6.80;99.90;;;;;;5093694;28;20417;-74
2024/01/02 06:38:41;;;;;;;4.80;2.27;;;6.90;99.90;;;;;;5092537;28;20278;-74
2024/01/02 06:41:07;;;;;;;5.37;3.00;;;6.90;99.90;;;;;;5093232;28;20281;-74
2024/01/02 06:43:33;;;;;;;5.17;2.93;;;6.90;99.90;;;;;;5093737;28;20274;-76
2024/01/02 06:46:00;;;;;;;5.97;3.30;;;6.90;99.90;;;;;;5093627;28;20285;-73
2024/01/02 06:48:26;;;;;;;5.73;3.30;;;6.90;99.90;;;;;;5093230;28;20382;-74
2024/01/02 06:50:52;;;;;;;5.43;2.87;;;6.90;99.90;;;;;;5093510;28;20373;-74
2024/01/02 06:53:17;;;;;;;5.27;3.10;;;6.90;99.90;;;;;;5093225;28;20044;-74
2024/01/02 06:55:43;;;;;;;6.80;3.70;;;6.90;99.90;;;;;;5093363;28;20094;-74
2024/01/02 06:58:09;;;;;;;7.23;3.87;;;7.00;99.90;;;;;;5093447;28;20044;-74
2024/01/02 07:00:34;;;;;;;5.80;3.80;;;7.00;99.90;;;;;;5092293;28;20093;-75
2024/01/02 07:03:00;;;;;;;7.83;4.00;;;7.00;99.90;;;;;;5093386;28;20083;-75
2024/01/02 07:05:26;;;;;;;6.83;3.83;;;7.00;99.90;;;;;;5093109;28;20048;-74
2024/01/02 07:07:51;;;;;;;5.83;3.30;;;7.00;99.90;;;;;;5093079;28;20047;-72
2024/01/02 07:10:17;;;;;;;8.23;3.80;;;7.00;99.90;;;;;;5091626;28;20127;-73
2024/01/02 07:12:43;;;;;;;8.00;3.90;;;7.00;99.90;;;;;;5093415;28;20063;-77
2024/01/02 07:15:09;;;;;;;9.03;5.00;;;7.10;99.90;;;;;;5093161;28;20767;-76
2024/01/02 07:17:35;;;;;;;7.53;4.50;;;7.10;99.90;;;;;;5092290;28;20060;-73
2024/01/02 07:20:01;;;;;;;10.03;5.53;;;7.10;99.90;;;;;;5092038;28;20286;-73
2024/01/02 07:22:27;;;;;;;7.90;4.80;;;7.10;99.90;;;;;;5092876;28;20133;-73
2024/01/02 07:24:53;;;;;;;10.80;5.90;;;7.20;99.90;;;;;;5091952;28;20055;-71
2024/01/02 07:27:18;;;;;;;8.23;4.77;;;7.20;99.90;;;;;;5092946;28;20294;-74
2024/01/02 07:29:44;;;;;;;11.70;5.40;;;7.20;99.90;;;;;;5075484;28;20401;-71
2024/01/02 07:32:10;;;;;;;12.20;6.10;;;7.30;99.90;;;;;;5092358;28;20052;-74
2024/01/02 07:34:36;;;;;;;14.63;6.50;;;7.40;99.90;;;;;;5092807;28;20277;-75
2024/01/02 07:37:02;;;;;;;14.90;7.20;;;7.40;99.90;;;;;;5092485;28;20040;-73
2024/01/02 07:39:27;;;;;;;14.63;7.07;;;7.40;99.90;;;;;;5092303;28;20494;-73
2024/01/02 07:41:53;;;;;;;15.30;6.53;;;7.50;99.90;;;;;;5093080;28;20489;-73
2024/01/02 07:44:19;;;;;;;18.50;7.93;;;7.50;99.90;;;;;;5092634;28;20063;-74
2024/01/02 07:46:45;;;;;;;18.60;7.90;;;7.60;99.90;;;;;;5092691;28;20036;-74
2024/01/02 07:49:11;;;;;;;19.33;8.10;;;7.60;99.90;;;;;;5092636;28;20421;-74
2024/01/02 07:51:36;;;;;;;19.40;8.67;;;7.70;99.90;;;;;;5092671;28;20040;-75
2024/01/02 07:54:02;;;;;;;24.37;9.10;;;7.80;99.90;;;;;;5092294;28;20823;-73
2024/01/02 07:56:29;;;;;;;29.10;8.00;;;7.90;99.90;;;;;;5092516;28;20048;-72
2024/01/02 07:58:56;;;;;;;25.27;7.40;;;8.00;99.90;;;;;;5093132;28;20044;-72
2024/01/02 08:01:22;;;;;;;32.33;7.83;;;8.10;99.90;;;;;;5095153;28;20907;-72
2024/01/02 08:03:48;;;;;;;24.27;7.03;;;8.10;99.90;;;;;;5096421;28;20632;-72
2024/01/02 08:06:13;;;;;;;31.20;7.83;;;8.20;99.90;;;;;;5096176;28;20278;-74
2024/01/02 08:08:39;;;;;;;30.30;6.23;;;8.20;99.90;;;;;;5095942;28;20055;-73
2024/01/02 08:11:05;;;;;;;31.60;5.83;;;8.30;99.90;;;;;;5096490;28;20051;-73
2024/01/02 08:13:31;;;;;;;27.27;6.17;;;8.40;99.90;;;;;;5096224;28;20127;-75
2024/01/02 08:15:57;;;;;;;31.47;5.70;;;8.40;99.90;;;;;;5095275;28;20373;-70
2024/01/02 08:18:23;;;;;;;30.90;5.40;;;8.50;99.90;;;;;;5095755;28;20397;-73
2024/01/02 08:20:49;;;;;;;26.30;5.47;;;8.50;99.90;;;;;;5096519;28;20051;-72
2024/01/02 08:23:14;;;;;;;38.50;6.23;;;8.50;99.90;;;;;;5095695;28;20365;-73
2024/01/02 08:25:40;;;;;;;24.90;4.90;;;8.60;99.90;;;;;;5096124;28;20181;-74
2024/01/02 08:28:06;;;;;;;23.60;4.53;;;8.50;99.90;;;;;;5096002;28;20036;-74
2024/01/02 08:30:32;;;;;;;33.77;4.70;;;8.60;99.90;;;;;;5095979;28;20089;-73
2024/01/02 08:32:59;;;;;;;27.97;4.70;;;8.60;99.90;;;;;;5095917;28;20464;-73
2024/01/02 08:35:25;;;;;;;25.23;4.37;;;8.70;99.90;;;;;;5095653;28;20274;-74
2024/01/02 08:37:50;;;;;;;21.97;4.40;;;8.70;99.90;;;;;;5095325;28;20286;-71
2024/01/02 08:40:16;;;;;;;25.10;3.50;;;8.70;99.90;;;;;;5095625;28;20369;-74
2024/01/02 08:42:42;;;;;;;23.57;4.80;;;8.70;99.90;;;;;;5095928;28;20047;-75
2024/01/02 08:45:11;;;;;;;22.33;4.10;;;8.70;99.90;;;;;;5095967;28;20055;-72
2024/01/02 08:47:38;;;;;;;24.90;4.23;;;8.80;99.90;;;;;;5094440;28;20059;-73
2024/01/02 08:50:06;;;;;;;24.60;4.40;;;8.80;99.90;;;;;;5095773;28;20278;-72
2024/01/02 08:52:32;;;;;;;29.47;4.40;;;8.80;99.90;;;;;;5095354;28;20330;-72
2024/01/02 08:54:59;;;;;;;30.13;4.40;;;8.80;99.90;;;;;;5095822;28;20278;-72
2024/01/02 08:57:25;;;;;;;32.27;4.10;;;8.80;99.90;;;;;;5095532;28;20288;-72
2024/01/02 08:59:51;;;;;;;23.27;3.67;;;8.80;99.90;;;;;;5095808;28;20270;-74
2024/01/02 09:02:16;;;;;;;24.97;3.77;;;8.80;99.90;;;;;;5095527;28;20039;-74
2024/01/02 09:04:45;;;;;;;33.57;4.20;;;8.90;99.90;;;;;;5094305;28;20048;-74
2024/01/02 09:07:10;;;;;;;31.93;3.90;;;8.90;99.90;;;;;;5095451;28;20036;-75
2024/01/02 09:09:36;;;;;;;35.50;4.47;;;8.90;99.90;;;;;;5094165;28;20292;-75
2024/01/02 09:12:02;;;;;;;28.50;4.13;;;9.00;99.90;;;;;;5095552;28;20044;-75
2024/01/02 09:14:29;;;;;;;20.17;3.57;;;9.00;99.90;;;;;;5095139;28;20052;-76
2024/01/02 09:16:55;;;;;;;33.33;4.77;;;9.00;99.90;;;;;;5095181;28;20278;-76
2024/01/02 09:19:21;;;;;;;32.47;4.77;;;9.00;99.90;;;;;;5094910;28;20277;-75
2024/01/02 09:21:46;;;;;;;28.57;4.70;;;9.10;99.90;;;;;;5095295;28;20047;-75
2024/01/02 09:24:18;;;;;;;39.53;5.20;;;9.10;99.90;;;;;;5095451;28;20051;-72
2024/01/02 09:26:48;;;;;;;30.37;4.07;;;9.10;99.90;;;;;;5093941;28;20044;-71
2024/01/02 09:29:14;;;;;;;26.77;3.80;;;9.10;99.90;;;;;;5095139;28;20273;-73
2024/01/02 09:31:43;;;;;;;27.07;4.83;;;9.10;99.90;;;;;;5094765;28;20274;-73
2024/01/02 09:34:10;;;;;;;41.53;5.00;;;9.20;99.90;;;;;;5094848;28;20307;-73
2024/01/02 09:36:36;;;;;;;27.37;4.87;;;9.20;99.90;;;;;;5094749;28;20310;-73
2024/01/02 09:39:02;;;;;;;34.10;4.90;;;9.20;99.90;;;;;;5094567;28;20671;-73
2024/01/02 09:42:07;;;;;;;29.57;4.60;;;9.30;99.90;;;;;;5094763;28;20336;-74
2024/01/02 09:44:33;;;;;;;23.43;4.30;;;9.30;99.90;;;;;;5092024;28;20767;-73
2024/01/02 09:47:32;;;;;;;28.23;4.00;;;9.30;99.90;;;;;;5094698;28;20301;-73
2024/01/02 09:50:07;;;;;;;25.67;3.67;;;9.30;99.90;;;;;;5095003;28;20056;-72
2024/01/02 09:53:09;;;;;;;29.35;3.90;;;9.30;99.90;;;;;;5094455;28;20310;-72
2024/01/02 09:56:03;;;;;;;30.17;5.43;;;9.40;99.90;;;;;;5087365;28;20064;-69
2024/01/02 09:59:06;;;;;;;37.20;4.83;;;9.40;99.90;;;;;;5094283;28;20763;-73
2024/01/02 10:01:36;;;;;;;25.20;5.13;;;9.40;99.90;;;;;;5094244;28;20373;-73
2024/01/02 10:04:17;;;;;;;29.20;4.57;;;9.50;99.90;;;;;;5094747;28;20612;-73
2024/01/02 10:06:46;;;;;;;33.53;5.03;;;9.40;99.90;;;;;;5093984;28;20302;-73
2024/01/02 10:09:30;;;;;;;32.63;6.80;;;9.50;99.90;;;;;;5094150;28;20365;-73
2024/01/02 10:12:04;;;;;;;30.50;7.30;;;9.50;99.90;;;;;;5094543;28;20286;-74
2024/01/02 10:15:23;;;;;;;30.47;9.07;;;9.60;99.90;;;;;;5094071;28;20407;-72
2024/01/02 10:17:58;;;;;;;30.30;5.40;;;9.60;99.90;;;;;;5090132;28;20282;-74
2024/01/02 10:20:39;;;;;;;34.28;5.43;;;9.60;99.90;;;;;;5093347;28;20424;-74
2024/01/02 10:23:10;;;;;;;36.07;6.80;;;9.60;99.90;;;;;;5092487;28;20052;-73
2024/01/02 10:25:37;;;;;;;29.77;5.57;;;9.60;99.90;;;;;;5093875;28;20783;-74
2024/01/02 10:28:21;;;;;;;40.70;6.57;;;9.60;99.90;;;;;;5093825;28;20309;-74
2024/01/02 10:31:03;;;;;;;34.93;5.80;;;9.60;99.90;;;;;;5092891;28;20293;-74
2024/01/02 10:33:39;;;;;;;32.90;5.77;;;9.60;99.90;;;;;;5093815;28;20274;-75
2024/01/02 10:36:11;;;;;;;31.53;7.20;;;9.60;99.90;;;;;;5093861;28;20325;-73
2024/01/02 10:38:43;;;;;;;33.03;7.40;;;9.60;99.90;;;;;;5093183;28;20294;-75
2024/01/02 10:41:44;;;;;;;38.87;6.30;;;9.60;99.90;;;;;;5093140;28;20370;-77
2024/01/02 10:44:19;;;;;;;38.40;7.67;;;9.60;99.90;;;;;;5093639;28;20759;-74
2024/01/02 10:46:58;;;;;;;36.22;7.10;;;9.70;99.90;;;;;;5093449;28;20302;-74
2024/01/02 10:49:52;;;;;;;35.20;8.50;;;9.60;99.90;;;;;;5093636;28;20497;-73
2024/01/02 10:52:24;;;;;;;36.20;7.40;;;9.60;99.90;;;;;;5093870;28;20310;-74
2024/01/02 10:55:00;;;;;;;31.03;6.63;;;9.70;99.90;;;;;;5093282;28;20279;-75
2024/01/02 10:57:51;;;;;;;33.17;6.97;;;9.70;99.90;;;;;;5093052;28;20771;-73
2024/01/02 11:00:24;;;;;;;26.23;4.90;;;9.70;99.90;;;;;;5092809;28;20282;-75
2024/01/02 11:03:00;;;;;;;30.40;5.90;;;9.80;99.90;;;;;;5093060;28;20767;-72
2024/01/02 11:05:28;;;;;;;25.60;4.90;;;9.80;99.90;;;;;;5093400;28;20282;-74
2024/01/02 11:08:23;;;;;;;28.77;5.23;;;9.80;99.90;;;;;;5092931;28;20304;-74
2024/01/02 11:11:01;;;;;;;35.40;8.03;;;9.80;99.90;;;;;;5093257;28;20278;-73
2024/01/02 11:13:28;;;;;;;29.57;5.83;;;9.80;99.90;;;;;;5093310;28;20800;-75
2024/01/02 11:16:02;;;;;;;33.83;6.90;;;9.80;99.90;;;;;;5092984;28;20314;-74
2024/01/02 11:18:31;;;;;;;28.00;4.30;;;9.80;99.90;;;;;;5093374;28;20274;-75
2024/01/02 11:21:12;;;;;;;30.93;5.23;;;9.80;99.90;;;;;;5093101;28;20339;-74
2024/01/02 11:23:44;;;;;;;25.97;5.10;;;9.90;99.90;;;;;;5093026;28;20278;-75
2024/01/02 11:26:25;;;;;;;32.40;5.67;;;9.90;99.90;;;;;;5092989;28;20274;-72
2024/01/02 11:28:53;;;;;;;32.93;5.70;;;9.90;99.90;;;;;;5092751;28;20285;-73
2024/01/02 11:31:21;;;;;;;35.03;7.17;;;9.90;99.90;;;;;;5093200;28;20340;-72
2024/01/02 11:34:22;;;;;;;34.50;7.10;;;9.90;99.90;;;;;;5093293;28;20328;-77
2024/01/02 11:37:06;;;;;;;33.80;6.23;;;9.90;99.90;;;;;;5097131;28;20339;-73
2024/01/02 11:39:31;;;;;;;39.67;6.30;;;9.90;99.90;;;;;;5097360;28;20292;-79
2024/01/02 11:42:00;;;;;;;32.80;6.40;;;9.90;99.90;;;;;;5079174;28;20285;-73
2024/01/02 11:44:48;;;;;;;38.87;7.00;;;9.90;99.90;;;;;;5097057;28;20054;-73
2024/01/02 11:47:32;;;;;;;37.23;5.97;;;9.90;99.90;;;;;;5096987;28;20293;-74
2024/01/02 11:50:03;;;;;;;41.87;7.23;;;9.90;99.90;;;;;;5096925;28;20277;-72
2024/01/02 11:52:32;;;;;;;44.43;6.90;;;9.90;99.90;;;;;;5095958;28;20293;-72
2024/01/02 11:55:25;;;;;;;41.47;6.90;;;9.90;99.90;;;;;;5095858;28;20377;-73
2024/01/02 11:57:53;;;;;;;43.37;7.17;;;9.90;99.90;;;;;;5096693;28;20601;-73
2024/01/02 12:00:41;;;;;;;47.23;8.00;;;10.00;99.90;;;;;;5096903;28;20282;-72
2024/01/02 12:03:25;;;;;;;48.10;7.33;;;10.00;99.90;;;;;;5096878;28;20840;-73
2024/01/02 12:05:58;;;;;;;46.58;7.38;;;10.00;99.90;;;;;;5095316;28;20339;-75
2024/01/02 12:08:29;;;;;;;49.43;7.60;;;10.00;99.90;;;;;;5096496;28;20131;-75
2024/01/02 12:11:03;;;;;;;46.00;7.13;;;10.00;99.90;;;;;;5096638;28;20274;-73
2024/01/02 12:13:38;;;;;;;50.33;11.77;;;10.00;99.90;;;;;;5096637;28;20275;-72
2024/01/02 12:16:09;;;;;;;58.27;11.80;;;10.00;99.90;;;;;;5096339;28;20052;-72
2024/01/02 12:18:41;;;;;;;81.57;21.70;;;10.10;99.90;;;;;;5096345;28;20281;-72
2024/01/02 12:21:17;;;;;;;75.60;23.23;;;10.00;99.90;;;;;;5096503;28;20597;-73
2024/01/02 12:23:49;;;;;;;95.90;28.03;;;10.00;99.90;;;;;;5096293;28;20282;-73
2024/01/02 12:26:19;;;;;;;133.83;37.33;;;10.00;99.90;;;;;;5096333;28;20270;-73
2024/01/02 12:28:45;;;;;;;129.40;41.80;;;10.00;99.90;;;;;;5096066;28;20282;-74
2024/01/02 12:31:22;;;;;;;118.23;42.07;;;10.00;99.90;;;;;;5094927;28;20286;-71
2024/01/02 12:33:57;;;;;;;139.03;44.23;;;10.00;99.90;;;;;;5096104;28;20289;-71
2024/01/02 12:36:45;;;;;;;91.72;28.70;;;10.00;99.90;;;;;;5095512;28;20373;-73
2024/01/02 12:39:15;;;;;;;79.13;21.83;;;10.00;99.90;;;;;;5096008;28;20052;-72
2024/01/02 12:41:51;;;;;;;79.53;18.40;;;10.00;99.90;;;;;;5094777;28;20292;-75
2024/01/02 12:44:19;;;;;;;70.00;16.03;;;10.00;99.90;;;;;;5096094;28;20353;-74
2024/01/02 12:47:00;;;;;;;68.90;14.17;;;10.00;99.90;;;;;;5095291;28;20620;-77
2024/01/02 12:49:27;;;;;;;61.90;9.63;;;10.00;99.90;;;;;;5095807;28;20374;-77
2024/01/02 12:52:04;;;;;;;43.73;9.10;;;10.00;99.90;;;;;;5094582;28;20286;-74
2024/01/02 12:54:30;;;;;;;42.33;7.00;;;10.10;99.90;;;;;;5095684;28;20290;-73
2024/01/02 12:57:02;;;;;;;39.83;6.63;;;10.00;99.90;;;;;;5094764;28;20316;-75